sensor_id;sensor_type;location;lat;lon;timestamp;P1;durP1;ratioP1;P2;durP2;ratioP2
40515;SDS011;26216;53.724;9.898;2023-04-05T00:01:26;9.43;;;5.38;;
40515;SDS011;26216;53.724;9.898;2023-04-05T00:03:56;8.55;;;4.95;;
40515;SDS011;26216;53.724;9.898;2023-04-05T00:06:26;8.48;;;4.97;;
40515;SDS011;26216;53.724;9.898;2023-04-05T00:08:54;9.23;;;4.95;;
40515;SDS011;26216;53.724;9.898;2023-04-05T00:11:24;7.72;;;4.57;;
40515;SDS011;26216;53.724;9.898;2023-04-05T00:13:51;8.68;;;4.97;;
40515;SDS011;26216;53.724;9.898;2023-04-05T00:16:17;9.30;;;5.25;;
40515;SDS011;26216;53.724;9.898;2023-04-05T00:18:44;8.20;;;5.00;;
40515;SDS011;26216;53.724;9.898;2023-04-05T00:24:03;7.47;;;5.03;;
40515;SDS011;26216;53.724;9.898;2023-04-05T00:26:41;8.25;;;4.25;;
40515;SDS011;26216;53.724;9.898;2023-04-05T00:29:08;8.60;;;5.03;;
40515;SDS011;26216;53.724;9.898;2023-04-05T00:31:34;7.93;;;5.03;;
40515;SDS011;26216;53.724;9.898;2023-04-05T00:34:00;9.48;;;5.10;;
40515;SDS011;26216;53.724;9.898;2023-04-05T00:36:26;9.98;;;5.93;;
40515;SDS011;26216;53.724;9.898;2023-04-05T00:38:52;7.95;;;5.13;;
40515;SDS011;26216;53.724;9.898;2023-04-05T00:41:19;9.32;;;5.00;;
40515;SDS011;26216;53.724;9.898;2023-04-05T00:43:45;7.13;;;4.47;;
40515;SDS011;26216;53.724;9.898;2023-04-05T00:46:11;7.78;;;4.60;;
40515;SDS011;26216;53.724;9.898;2023-04-05T00:48:37;9.77;;;5.35;;
40515;SDS011;26216;53.724;9.898;2023-04-05T00:51:03;7.45;;;4.75;;
40515;SDS011;26216;53.724;9.898;2023-04-05T00:53:33;6.95;;;4.45;;
40515;SDS011;26216;53.724;9.898;2023-04-05T00:55:59;6.00;;;4.20;;
40515;SDS011;26216;53.724;9.898;2023-04-05T00:58:26;7.70;;;4.30;;
40515;SDS011;26216;53.724;9.898;2023-04-05T01:03:18;6.13;;;4.10;;
40515;SDS011;26216;53.724;9.898;2023-04-05T01:05:51;7.28;;;4.30;;
40515;SDS011;26216;53.724;9.898;2023-04-05T01:11:27;6.72;;;4.15;;
40515;SDS011;26216;53.724;9.898;2023-04-05T01:13:57;5.97;;;3.80;;
40515;SDS011;26216;53.724;9.898;2023-04-05T01:16:24;6.20;;;3.60;;
40515;SDS011;26216;53.724;9.898;2023-04-05T01:18:52;7.93;;;4.20;;
40515;SDS011;26216;53.724;9.898;2023-04-05T01:23:58;5.85;;;3.55;;
40515;SDS011;26216;53.724;9.898;2023-04-05T01:26:53;8.88;;;4.00;;
40515;SDS011;26216;53.724;9.898;2023-04-05T01:29:50;6.00;;;3.72;;
40515;SDS011;26216;53.724;9.898;2023-04-05T01:32:45;7.20;;;3.95;;
40515;SDS011;26216;53.724;9.898;2023-04-05T01:35:24;6.75;;;3.70;;
40515;SDS011;26216;53.724;9.898;2023-04-05T01:37:52;5.55;;;3.47;;
40515;SDS011;26216;53.724;9.898;2023-04-05T01:40:22;6.68;;;3.90;;
40515;SDS011;26216;53.724;9.898;2023-04-05T01:42:49;7.28;;;3.78;;
40515;SDS011;26216;53.724;9.898;2023-04-05T01:45:15;7.32;;;3.65;;
40515;SDS011;26216;53.724;9.898;2023-04-05T01:47:41;5.53;;;3.22;;
40515;SDS011;26216;53.724;9.898;2023-04-05T01:50:07;6.55;;;3.50;;
40515;SDS011;26216;53.724;9.898;2023-04-05T01:52:33;6.60;;;3.47;;
40515;SDS011;26216;53.724;9.898;2023-04-05T01:54:59;6.38;;;3.22;;
40515;SDS011;26216;53.724;9.898;2023-04-05T01:57:25;5.25;;;3.15;;
40515;SDS011;26216;53.724;9.898;2023-04-05T01:59:51;6.63;;;3.85;;
40515;SDS011;26216;53.724;9.898;2023-04-05T02:02:16;4.85;;;3.15;;
40515;SDS011;26216;53.724;9.898;2023-04-05T02:04:42;6.03;;;3.38;;
40515;SDS011;26216;53.724;9.898;2023-04-05T02:07:08;5.45;;;3.15;;
40515;SDS011;26216;53.724;9.898;2023-04-05T02:09:34;5.43;;;2.97;;
40515;SDS011;26216;53.724;9.898;2023-04-05T02:12:00;4.47;;;3.05;;
40515;SDS011;26216;53.724;9.898;2023-04-05T02:14:26;4.82;;;2.85;;
40515;SDS011;26216;53.724;9.898;2023-04-05T02:16:53;5.30;;;2.88;;
40515;SDS011;26216;53.724;9.898;2023-04-05T02:19:21;5.80;;;2.80;;
40515;SDS011;26216;53.724;9.898;2023-04-05T02:21:50;5.88;;;3.30;;
40515;SDS011;26216;53.724;9.898;2023-04-05T02:24:19;5.18;;;2.90;;
40515;SDS011;26216;53.724;9.898;2023-04-05T02:26:46;5.38;;;2.90;;
40515;SDS011;26216;53.724;9.898;2023-04-05T02:29:12;5.07;;;3.22;;
40515;SDS011;26216;53.724;9.898;2023-04-05T02:31:38;4.85;;;3.00;;
40515;SDS011;26216;53.724;9.898;2023-04-05T02:34:04;5.50;;;2.80;;
40515;SDS011;26216;53.724;9.898;2023-04-05T02:36:33;6.18;;;3.08;;
40515;SDS011;26216;53.724;9.898;2023-04-05T02:38:59;4.10;;;2.50;;
40515;SDS011;26216;53.724;9.898;2023-04-05T02:41:24;3.95;;;2.45;;
40515;SDS011;26216;53.724;9.898;2023-04-05T02:43:51;4.07;;;2.55;;
40515;SDS011;26216;53.724;9.898;2023-04-05T02:46:16;4.15;;;2.72;;
40515;SDS011;26216;53.724;9.898;2023-04-05T02:48:43;4.30;;;2.70;;
40515;SDS011;26216;53.724;9.898;2023-04-05T02:51:10;5.05;;;2.90;;
40515;SDS011;26216;53.724;9.898;2023-04-05T02:53:36;5.70;;;2.88;;
40515;SDS011;26216;53.724;9.898;2023-04-05T02:56:02;4.78;;;2.50;;
40515;SDS011;26216;53.724;9.898;2023-04-05T02:58:28;5.18;;;2.92;;
40515;SDS011;26216;53.724;9.898;2023-04-05T03:00:54;4.20;;;2.53;;
40515;SDS011;26216;53.724;9.898;2023-04-05T03:03:20;4.93;;;2.72;;
40515;SDS011;26216;53.724;9.898;2023-04-05T03:05:47;4.72;;;2.50;;
40515;SDS011;26216;53.724;9.898;2023-04-05T03:08:21;4.80;;;2.50;;
40515;SDS011;26216;53.724;9.898;2023-04-05T03:10:50;3.97;;;2.25;;
40515;SDS011;26216;53.724;9.898;2023-04-05T03:13:16;3.63;;;2.13;;
40515;SDS011;26216;53.724;9.898;2023-04-05T03:15:42;4.00;;;2.40;;
40515;SDS011;26216;53.724;9.898;2023-04-05T03:18:08;4.82;;;2.63;;
40515;SDS011;26216;53.724;9.898;2023-04-05T03:20:35;5.32;;;2.75;;
40515;SDS011;26216;53.724;9.898;2023-04-05T03:23:07;5.68;;;3.13;;
40515;SDS011;26216;53.724;9.898;2023-04-05T03:25:34;4.20;;;2.30;;
40515;SDS011;26216;53.724;9.898;2023-04-05T03:28:04;4.70;;;2.50;;
40515;SDS011;26216;53.724;9.898;2023-04-05T03:30:33;4.53;;;2.60;;
40515;SDS011;26216;53.724;9.898;2023-04-05T03:33:00;4.78;;;2.50;;
40515;SDS011;26216;53.724;9.898;2023-04-05T03:35:27;4.03;;;2.22;;
40515;SDS011;26216;53.724;9.898;2023-04-05T03:37:53;4.38;;;2.65;;
40515;SDS011;26216;53.724;9.898;2023-04-05T03:40:20;4.20;;;2.33;;
40515;SDS011;26216;53.724;9.898;2023-04-05T03:42:47;3.53;;;2.30;;
40515;SDS011;26216;53.724;9.898;2023-04-05T03:45:13;4.28;;;2.45;;
40515;SDS011;26216;53.724;9.898;2023-04-05T03:47:39;3.97;;;2.20;;
40515;SDS011;26216;53.724;9.898;2023-04-05T03:50:05;5.35;;;2.75;;
40515;SDS011;26216;53.724;9.898;2023-04-05T03:52:32;3.50;;;2.08;;
40515;SDS011;26216;53.724;9.898;2023-04-05T03:54:57;4.13;;;2.67;;
40515;SDS011;26216;53.724;9.898;2023-04-05T03:57:24;5.55;;;2.58;;
40515;SDS011;26216;53.724;9.898;2023-04-05T03:59:52;3.88;;;2.28;;
40515;SDS011;26216;53.724;9.898;2023-04-05T04:02:18;4.30;;;2.28;;
40515;SDS011;26216;53.724;9.898;2023-04-05T04:04:44;3.75;;;2.13;;
40515;SDS011;26216;53.724;9.898;2023-04-05T04:07:10;5.28;;;2.28;;
40515;SDS011;26216;53.724;9.898;2023-04-05T04:09:35;3.97;;;2.53;;
40515;SDS011;26216;53.724;9.898;2023-04-05T04:12:01;3.65;;;2.40;;
40515;SDS011;26216;53.724;9.898;2023-04-05T04:14:28;4.57;;;2.63;;
40515;SDS011;26216;53.724;9.898;2023-04-05T04:16:53;5.25;;;2.22;;
40515;SDS011;26216;53.724;9.898;2023-04-05T04:19:19;5.75;;;2.60;;
40515;SDS011;26216;53.724;9.898;2023-04-05T04:21:45;3.97;;;2.50;;
40515;SDS011;26216;53.724;9.898;2023-04-05T04:24:16;4.68;;;2.50;;
40515;SDS011;26216;53.724;9.898;2023-04-05T04:26:45;4.20;;;2.38;;
40515;SDS011;26216;53.724;9.898;2023-04-05T04:29:12;4.68;;;2.35;;
40515;SDS011;26216;53.724;9.898;2023-04-05T04:31:43;4.28;;;2.65;;
40515;SDS011;26216;53.724;9.898;2023-04-05T04:34:12;4.25;;;2.33;;
40515;SDS011;26216;53.724;9.898;2023-04-05T04:36:38;4.90;;;2.70;;
40515;SDS011;26216;53.724;9.898;2023-04-05T04:39:07;4.53;;;2.92;;
40515;SDS011;26216;53.724;9.898;2023-04-05T04:41:34;4.32;;;2.22;;
40515;SDS011;26216;53.724;9.898;2023-04-05T04:44:02;4.70;;;2.50;;
40515;SDS011;26216;53.724;9.898;2023-04-05T04:46:30;4.95;;;2.53;;
40515;SDS011;26216;53.724;9.898;2023-04-05T04:49:07;4.72;;;2.90;;
40515;SDS011;26216;53.724;9.898;2023-04-05T04:51:37;4.55;;;2.65;;
40515;SDS011;26216;53.724;9.898;2023-04-05T04:54:03;4.28;;;2.60;;
40515;SDS011;26216;53.724;9.898;2023-04-05T04:56:30;4.55;;;2.75;;
40515;SDS011;26216;53.724;9.898;2023-04-05T04:58:56;4.25;;;2.60;;
40515;SDS011;26216;53.724;9.898;2023-04-05T05:01:22;4.45;;;2.58;;
40515;SDS011;26216;53.724;9.898;2023-04-05T05:03:49;4.57;;;2.65;;
40515;SDS011;26216;53.724;9.898;2023-04-05T05:06:16;3.83;;;2.30;;
40515;SDS011;26216;53.724;9.898;2023-04-05T05:08:46;4.35;;;2.50;;
40515;SDS011;26216;53.724;9.898;2023-04-05T05:11:13;4.53;;;2.50;;
40515;SDS011;26216;53.724;9.898;2023-04-05T05:13:39;4.82;;;2.60;;
40515;SDS011;26216;53.724;9.898;2023-04-05T05:16:07;5.07;;;2.90;;
40515;SDS011;26216;53.724;9.898;2023-04-05T05:18:33;4.50;;;2.20;;
40515;SDS011;26216;53.724;9.898;2023-04-05T05:20:59;4.65;;;2.75;;
40515;SDS011;26216;53.724;9.898;2023-04-05T05:23:24;4.60;;;2.47;;
40515;SDS011;26216;53.724;9.898;2023-04-05T05:25:56;5.32;;;2.33;;
40515;SDS011;26216;53.724;9.898;2023-04-05T05:28:28;4.07;;;2.30;;
40515;SDS011;26216;53.724;9.898;2023-04-05T05:30:53;5.05;;;2.83;;
40515;SDS011;26216;53.724;9.898;2023-04-05T05:33:19;4.90;;;2.60;;
40515;SDS011;26216;53.724;9.898;2023-04-05T05:35:48;5.38;;;2.55;;
40515;SDS011;26216;53.724;9.898;2023-04-05T05:38:18;4.85;;;2.50;;
40515;SDS011;26216;53.724;9.898;2023-04-05T05:40:44;5.53;;;2.55;;
40515;SDS011;26216;53.724;9.898;2023-04-05T05:43:11;4.07;;;2.30;;
40515;SDS011;26216;53.724;9.898;2023-04-05T05:45:37;4.25;;;2.40;;
40515;SDS011;26216;53.724;9.898;2023-04-05T05:48:03;3.80;;;2.28;;
40515;SDS011;26216;53.724;9.898;2023-04-05T05:50:28;3.42;;;2.13;;
40515;SDS011;26216;53.724;9.898;2023-04-05T05:53:00;4.47;;;2.35;;
40515;SDS011;26216;53.724;9.898;2023-04-05T05:55:25;6.28;;;2.38;;
40515;SDS011;26216;53.724;9.898;2023-04-05T05:57:51;5.45;;;2.92;;
40515;SDS011;26216;53.724;9.898;2023-04-05T06:00:18;5.25;;;3.22;;
40515;SDS011;26216;53.724;9.898;2023-04-05T06:02:45;7.07;;;3.40;;
40515;SDS011;26216;53.724;9.898;2023-04-05T06:05:11;5.13;;;3.05;;
40515;SDS011;26216;53.724;9.898;2023-04-05T06:07:37;4.68;;;3.13;;
40515;SDS011;26216;53.724;9.898;2023-04-05T06:10:06;4.65;;;3.08;;
40515;SDS011;26216;53.724;9.898;2023-04-05T06:12:32;4.32;;;2.75;;
40515;SDS011;26216;53.724;9.898;2023-04-05T06:14:59;5.43;;;3.03;;
40515;SDS011;26216;53.724;9.898;2023-04-05T06:17:25;4.75;;;2.70;;
40515;SDS011;26216;53.724;9.898;2023-04-05T06:19:52;4.82;;;3.25;;
40515;SDS011;26216;53.724;9.898;2023-04-05T06:22:18;4.50;;;2.60;;
40515;SDS011;26216;53.724;9.898;2023-04-05T06:24:44;4.03;;;2.95;;
40515;SDS011;26216;53.724;9.898;2023-04-05T06:27:10;4.10;;;2.33;;
40515;SDS011;26216;53.724;9.898;2023-04-05T06:29:38;6.82;;;3.05;;
40515;SDS011;26216;53.724;9.898;2023-04-05T06:32:05;5.28;;;3.13;;
40515;SDS011;26216;53.724;9.898;2023-04-05T06:34:31;5.50;;;3.15;;
40515;SDS011;26216;53.724;9.898;2023-04-05T06:36:57;5.35;;;3.33;;
40515;SDS011;26216;53.724;9.898;2023-04-05T06:39:22;5.00;;;3.30;;
40515;SDS011;26216;53.724;9.898;2023-04-05T06:41:48;7.10;;;3.60;;
40515;SDS011;26216;53.724;9.898;2023-04-05T06:44:14;5.32;;;3.35;;
40515;SDS011;26216;53.724;9.898;2023-04-05T06:46:40;5.70;;;3.40;;
40515;SDS011;26216;53.724;9.898;2023-04-05T06:49:06;5.22;;;3.67;;
40515;SDS011;26216;53.724;9.898;2023-04-05T06:51:32;7.57;;;3.78;;
40515;SDS011;26216;53.724;9.898;2023-04-05T06:53:58;5.60;;;3.38;;
40515;SDS011;26216;53.724;9.898;2023-04-05T06:56:24;5.80;;;3.50;;
40515;SDS011;26216;53.724;9.898;2023-04-05T06:58:49;5.68;;;3.97;;
40515;SDS011;26216;53.724;9.898;2023-04-05T07:01:15;5.97;;;3.65;;
40515;SDS011;26216;53.724;9.898;2023-04-05T07:03:41;5.43;;;3.30;;
40515;SDS011;26216;53.724;9.898;2023-04-05T07:06:07;6.40;;;3.60;;
40515;SDS011;26216;53.724;9.898;2023-04-05T07:08:34;4.95;;;3.00;;
40515;SDS011;26216;53.724;9.898;2023-04-05T07:11:00;7.03;;;3.67;;
40515;SDS011;26216;53.724;9.898;2023-04-05T07:13:26;7.13;;;3.55;;
40515;SDS011;26216;53.724;9.898;2023-04-05T07:15:58;5.30;;;3.50;;
40515;SDS011;26216;53.724;9.898;2023-04-05T07:18:25;6.47;;;3.65;;
40515;SDS011;26216;53.724;9.898;2023-04-05T07:20:51;6.95;;;3.55;;
40515;SDS011;26216;53.724;9.898;2023-04-05T07:23:20;5.00;;;3.40;;
40515;SDS011;26216;53.724;9.898;2023-04-05T07:25:46;5.63;;;3.30;;
40515;SDS011;26216;53.724;9.898;2023-04-05T07:28:11;5.03;;;3.45;;
40515;SDS011;26216;53.724;9.898;2023-04-05T07:30:37;6.43;;;3.60;;
40515;SDS011;26216;53.724;9.898;2023-04-05T07:33:03;6.28;;;3.95;;
40515;SDS011;26216;53.724;9.898;2023-04-05T07:35:29;4.35;;;3.10;;
40515;SDS011;26216;53.724;9.898;2023-04-05T07:37:55;9.90;;;4.10;;
40515;SDS011;26216;53.724;9.898;2023-04-05T07:40:21;4.63;;;3.30;;
40515;SDS011;26216;53.724;9.898;2023-04-05T07:42:47;6.68;;;3.83;;
40515;SDS011;26216;53.724;9.898;2023-04-05T07:45:13;6.70;;;4.63;;
40515;SDS011;26216;53.724;9.898;2023-04-05T07:47:39;7.07;;;3.92;;
40515;SDS011;26216;53.724;9.898;2023-04-05T07:50:05;6.47;;;3.63;;
40515;SDS011;26216;53.724;9.898;2023-04-05T07:52:33;6.20;;;3.70;;
40515;SDS011;26216;53.724;9.898;2023-04-05T07:55:00;6.65;;;3.97;;
40515;SDS011;26216;53.724;9.898;2023-04-05T07:57:31;6.05;;;4.10;;
40515;SDS011;26216;53.724;9.898;2023-04-05T07:59:57;6.55;;;3.53;;
40515;SDS011;26216;53.724;9.898;2023-04-05T08:02:23;6.47;;;4.00;;
40515;SDS011;26216;53.724;9.898;2023-04-05T08:04:49;7.68;;;4.15;;
40515;SDS011;26216;53.724;9.898;2023-04-05T08:07:15;5.78;;;3.50;;
40515;SDS011;26216;53.724;9.898;2023-04-05T08:09:41;5.25;;;3.33;;
40515;SDS011;26216;53.724;9.898;2023-04-05T08:12:07;4.72;;;2.97;;
40515;SDS011;26216;53.724;9.898;2023-04-05T08:14:35;5.22;;;3.42;;
40515;SDS011;26216;53.724;9.898;2023-04-05T08:17:01;5.20;;;3.55;;
40515;SDS011;26216;53.724;9.898;2023-04-05T08:19:27;5.00;;;3.25;;
40515;SDS011;26216;53.724;9.898;2023-04-05T08:21:53;6.10;;;3.00;;
40515;SDS011;26216;53.724;9.898;2023-04-05T08:24:20;4.85;;;2.92;;
40515;SDS011;26216;53.724;9.898;2023-04-05T08:26:46;5.15;;;3.58;;
40515;SDS011;26216;53.724;9.898;2023-04-05T08:29:12;5.72;;;2.90;;
40515;SDS011;26216;53.724;9.898;2023-04-05T08:31:39;5.38;;;3.30;;
40515;SDS011;26216;53.724;9.898;2023-04-05T08:34:04;4.95;;;3.60;;
40515;SDS011;26216;53.724;9.898;2023-04-05T08:36:32;4.70;;;2.97;;
40515;SDS011;26216;53.724;9.898;2023-04-05T08:38:58;5.10;;;2.85;;
40515;SDS011;26216;53.724;9.898;2023-04-05T08:41:24;5.80;;;3.28;;
40515;SDS011;26216;53.724;9.898;2023-04-05T08:46:22;6.20;;;3.90;;
40515;SDS011;26216;53.724;9.898;2023-04-05T08:48:49;4.65;;;3.28;;
40515;SDS011;26216;53.724;9.898;2023-04-05T08:51:19;7.03;;;4.00;;
40515;SDS011;26216;53.724;9.898;2023-04-05T08:53:46;7.20;;;3.60;;
40515;SDS011;26216;53.724;9.898;2023-04-05T08:56:18;5.65;;;3.58;;
40515;SDS011;26216;53.724;9.898;2023-04-05T08:59:05;4.68;;;3.28;;
40515;SDS011;26216;53.724;9.898;2023-04-05T09:01:36;5.00;;;2.85;;
40515;SDS011;26216;53.724;9.898;2023-04-05T09:04:08;4.00;;;2.85;;
40515;SDS011;26216;53.724;9.898;2023-04-05T09:06:39;4.30;;;3.00;;
40515;SDS011;26216;53.724;9.898;2023-04-05T09:09:06;4.75;;;2.83;;
40515;SDS011;26216;53.724;9.898;2023-04-05T09:11:33;4.95;;;3.00;;
40515;SDS011;26216;53.724;9.898;2023-04-05T09:14:06;5.78;;;3.60;;
40515;SDS011;26216;53.724;9.898;2023-04-05T09:16:32;8.48;;;3.60;;
40515;SDS011;26216;53.724;9.898;2023-04-05T09:19:02;6.00;;;3.17;;
40515;SDS011;26216;53.724;9.898;2023-04-05T09:21:28;3.97;;;2.80;;
40515;SDS011;26216;53.724;9.898;2023-04-05T09:23:54;4.53;;;3.40;;
40515;SDS011;26216;53.724;9.898;2023-04-05T09:26:23;5.72;;;3.08;;
40515;SDS011;26216;53.724;9.898;2023-04-05T09:28:50;7.60;;;3.85;;
40515;SDS011;26216;53.724;9.898;2023-04-05T09:34:01;5.18;;;3.55;;
40515;SDS011;26216;53.724;9.898;2023-04-05T09:36:28;5.03;;;3.30;;
40515;SDS011;26216;53.724;9.898;2023-04-05T09:39:07;5.35;;;3.53;;
40515;SDS011;26216;53.724;9.898;2023-04-05T09:41:34;5.88;;;3.50;;
40515;SDS011;26216;53.724;9.898;2023-04-05T09:44:01;4.82;;;3.15;;
40515;SDS011;26216;53.724;9.898;2023-04-05T09:46:30;7.18;;;4.32;;
40515;SDS011;26216;53.724;9.898;2023-04-05T09:48:58;5.10;;;3.30;;
40515;SDS011;26216;53.724;9.898;2023-04-05T09:51:32;5.55;;;3.45;;
40515;SDS011;26216;53.724;9.898;2023-04-05T09:54:00;5.72;;;3.13;;
40515;SDS011;26216;53.724;9.898;2023-04-05T09:56:35;5.85;;;2.90;;
40515;SDS011;26216;53.724;9.898;2023-04-05T09:59:08;4.82;;;2.58;;
40515;SDS011;26216;53.724;9.898;2023-04-05T10:01:38;4.18;;;2.25;;
40515;SDS011;26216;53.724;9.898;2023-04-05T10:04:08;5.28;;;3.08;;
40515;SDS011;26216;53.724;9.898;2023-04-05T10:06:38;4.97;;;2.92;;
40515;SDS011;26216;53.724;9.898;2023-04-05T10:09:06;4.35;;;2.35;;
40515;SDS011;26216;53.724;9.898;2023-04-05T10:11:33;3.33;;;2.10;;
40515;SDS011;26216;53.724;9.898;2023-04-05T10:14:01;4.47;;;2.92;;
40515;SDS011;26216;53.724;9.898;2023-04-05T10:16:29;4.63;;;2.40;;
40515;SDS011;26216;53.724;9.898;2023-04-05T10:19:13;7.38;;;3.05;;
40515;SDS011;26216;53.724;9.898;2023-04-05T10:21:44;5.40;;;3.00;;
40515;SDS011;26216;53.724;9.898;2023-04-05T10:27:06;4.32;;;2.83;;
40515;SDS011;26216;53.724;9.898;2023-04-05T10:29:42;5.53;;;3.25;;
40515;SDS011;26216;53.724;9.898;2023-04-05T10:32:19;4.10;;;2.38;;
40515;SDS011;26216;53.724;9.898;2023-04-05T10:38:11;5.72;;;3.25;;
40515;SDS011;26216;53.724;9.898;2023-04-05T10:40:45;4.40;;;2.88;;
40515;SDS011;26216;53.724;9.898;2023-04-05T10:43:16;5.70;;;3.08;;
40515;SDS011;26216;53.724;9.898;2023-04-05T10:45:47;5.20;;;2.97;;
40515;SDS011;26216;53.724;9.898;2023-04-05T10:51:03;4.35;;;2.80;;
40515;SDS011;26216;53.724;9.898;2023-04-05T10:53:30;3.30;;;2.15;;
40515;SDS011;26216;53.724;9.898;2023-04-05T10:55:59;3.90;;;2.20;;
40515;SDS011;26216;53.724;9.898;2023-04-05T10:58:26;6.25;;;3.20;;
40515;SDS011;26216;53.724;9.898;2023-04-05T11:00:53;5.50;;;3.28;;
40515;SDS011;26216;53.724;9.898;2023-04-05T11:06:39;3.97;;;2.42;;
40515;SDS011;26216;53.724;9.898;2023-04-05T11:11:39;3.95;;;2.60;;
40515;SDS011;26216;53.724;9.898;2023-04-05T11:14:17;5.53;;;2.30;;
40515;SDS011;26216;53.724;9.898;2023-04-05T11:16:50;5.22;;;2.83;;
40515;SDS011;26216;53.724;9.898;2023-04-05T11:19:19;4.72;;;2.33;;
40515;SDS011;26216;53.724;9.898;2023-04-05T11:21:45;4.38;;;2.60;;
40515;SDS011;26216;53.724;9.898;2023-04-05T11:24:12;3.25;;;2.55;;
40515;SDS011;26216;53.724;9.898;2023-04-05T11:29:09;3.97;;;2.45;;
40515;SDS011;26216;53.724;9.898;2023-04-05T11:31:35;3.75;;;2.40;;
40515;SDS011;26216;53.724;9.898;2023-04-05T11:34:22;5.22;;;2.88;;
40515;SDS011;26216;53.724;9.898;2023-04-05T11:36:49;4.05;;;2.55;;
40515;SDS011;26216;53.724;9.898;2023-04-05T11:41:49;4.60;;;2.38;;
40515;SDS011;26216;53.724;9.898;2023-04-05T11:44:24;4.72;;;2.80;;
40515;SDS011;26216;53.724;9.898;2023-04-05T11:46:52;4.55;;;2.47;;
40515;SDS011;26216;53.724;9.898;2023-04-05T11:49:22;5.25;;;2.55;;
40515;SDS011;26216;53.724;9.898;2023-04-05T11:51:49;4.17;;;2.23;;
40515;SDS011;26216;53.724;9.898;2023-04-05T11:54:32;4.18;;;2.42;;
40515;SDS011;26216;53.724;9.898;2023-04-05T11:56:58;3.70;;;2.00;;
40515;SDS011;26216;53.724;9.898;2023-04-05T11:59:32;2.78;;;1.58;;
40515;SDS011;26216;53.724;9.898;2023-04-05T12:02:00;2.72;;;1.40;;
40515;SDS011;26216;53.724;9.898;2023-04-05T12:04:29;2.85;;;1.60;;
40515;SDS011;26216;53.724;9.898;2023-04-05T12:09:54;3.50;;;1.77;;
40515;SDS011;26216;53.724;9.898;2023-04-05T12:12:42;3.40;;;2.00;;
40515;SDS011;26216;53.724;9.898;2023-04-05T12:15:10;2.60;;;1.77;;
40515;SDS011;26216;53.724;9.898;2023-04-05T12:17:42;3.42;;;1.70;;
40515;SDS011;26216;53.724;9.898;2023-04-05T12:20:13;2.95;;;1.80;;
40515;SDS011;26216;53.724;9.898;2023-04-05T12:22:44;3.55;;;2.10;;
40515;SDS011;26216;53.724;9.898;2023-04-05T12:25:13;2.78;;;1.65;;
40515;SDS011;26216;53.724;9.898;2023-04-05T12:27:40;2.60;;;1.65;;
40515;SDS011;26216;53.724;9.898;2023-04-05T12:30:06;3.03;;;1.90;;
40515;SDS011;26216;53.724;9.898;2023-04-05T12:32:40;3.20;;;1.50;;
40515;SDS011;26216;53.724;9.898;2023-04-05T12:35:11;3.17;;;1.77;;
40515;SDS011;26216;53.724;9.898;2023-04-05T12:37:39;2.78;;;1.98;;
40515;SDS011;26216;53.724;9.898;2023-04-05T12:40:06;4.70;;;2.80;;
40515;SDS011;26216;53.724;9.898;2023-04-05T12:42:34;5.72;;;2.85;;
40515;SDS011;26216;53.724;9.898;2023-04-05T12:45:05;4.40;;;2.95;;
40515;SDS011;26216;53.724;9.898;2023-04-05T12:47:34;6.25;;;3.05;;
40515;SDS011;26216;53.724;9.898;2023-04-05T12:50:13;6.57;;;2.50;;
40515;SDS011;26216;53.724;9.898;2023-04-05T12:52:50;3.88;;;2.30;;
40515;SDS011;26216;53.724;9.898;2023-04-05T12:55:20;3.42;;;2.00;;
40515;SDS011;26216;53.724;9.898;2023-04-05T12:57:51;3.60;;;2.42;;
40515;SDS011;26216;53.724;9.898;2023-04-05T13:00:19;5.72;;;2.50;;
40515;SDS011;26216;53.724;9.898;2023-04-05T13:02:49;3.88;;;2.42;;
40515;SDS011;26216;53.724;9.898;2023-04-05T13:05:36;2.70;;;1.77;;
40515;SDS011;26216;53.724;9.898;2023-04-05T13:08:02;4.40;;;2.30;;
40515;SDS011;26216;53.724;9.898;2023-04-05T13:10:28;4.18;;;2.60;;
40515;SDS011;26216;53.724;9.898;2023-04-05T13:12:53;6.97;;;3.30;;
40515;SDS011;26216;53.724;9.898;2023-04-05T13:15:20;5.70;;;3.38;;
40515;SDS011;26216;53.724;9.898;2023-04-05T13:17:46;4.25;;;2.85;;
40515;SDS011;26216;53.724;9.898;2023-04-05T13:20:15;4.50;;;2.97;;
40515;SDS011;26216;53.724;9.898;2023-04-05T13:22:42;3.95;;;2.67;;
40515;SDS011;26216;53.724;9.898;2023-04-05T13:25:08;4.35;;;2.53;;
40515;SDS011;26216;53.724;9.898;2023-04-05T13:27:34;4.22;;;2.15;;
40515;SDS011;26216;53.724;9.898;2023-04-05T13:30:00;2.53;;;1.75;;
40515;SDS011;26216;53.724;9.898;2023-04-05T13:32:26;2.78;;;1.70;;
40515;SDS011;26216;53.724;9.898;2023-04-05T13:34:52;3.63;;;2.15;;
40515;SDS011;26216;53.724;9.898;2023-04-05T13:37:18;4.05;;;2.40;;
40515;SDS011;26216;53.724;9.898;2023-04-05T13:39:45;4.22;;;2.42;;
40515;SDS011;26216;53.724;9.898;2023-04-05T13:42:10;3.58;;;2.28;;
40515;SDS011;26216;53.724;9.898;2023-04-05T13:44:36;3.55;;;2.30;;
40515;SDS011;26216;53.724;9.898;2023-04-05T13:47:03;3.58;;;2.00;;
40515;SDS011;26216;53.724;9.898;2023-04-05T13:49:29;4.90;;;2.33;;
40515;SDS011;26216;53.724;9.898;2023-04-05T13:51:55;3.08;;;1.70;;
40515;SDS011;26216;53.724;9.898;2023-04-05T13:54:21;3.33;;;1.80;;
40515;SDS011;26216;53.724;9.898;2023-04-05T13:56:47;4.18;;;2.20;;
40515;SDS011;26216;53.724;9.898;2023-04-05T13:59:13;4.10;;;2.63;;
40515;SDS011;26216;53.724;9.898;2023-04-05T14:01:50;3.65;;;2.20;;
40515;SDS011;26216;53.724;9.898;2023-04-05T14:04:16;3.15;;;2.00;;
40515;SDS011;26216;53.724;9.898;2023-04-05T14:06:43;2.53;;;1.77;;
40515;SDS011;26216;53.724;9.898;2023-04-05T14:09:09;2.60;;;1.38;;
40515;SDS011;26216;53.724;9.898;2023-04-05T14:11:36;2.13;;;1.27;;
40515;SDS011;26216;53.724;9.898;2023-04-05T14:14:02;2.75;;;1.38;;
40515;SDS011;26216;53.724;9.898;2023-04-05T14:16:29;1.88;;;1.17;;
40515;SDS011;26216;53.724;9.898;2023-04-05T14:18:55;2.83;;;1.70;;
40515;SDS011;26216;53.724;9.898;2023-04-05T14:21:22;4.20;;;1.75;;
40515;SDS011;26216;53.724;9.898;2023-04-05T14:23:49;2.30;;;1.50;;
40515;SDS011;26216;53.724;9.898;2023-04-05T14:26:21;2.58;;;1.60;;
40515;SDS011;26216;53.724;9.898;2023-04-05T14:28:51;2.55;;;1.45;;
40515;SDS011;26216;53.724;9.898;2023-04-05T14:31:17;2.80;;;1.40;;
40515;SDS011;26216;53.724;9.898;2023-04-05T14:33:43;2.58;;;1.50;;
40515;SDS011;26216;53.724;9.898;2023-04-05T14:36:09;1.77;;;1.10;;
40515;SDS011;26216;53.724;9.898;2023-04-05T14:38:35;2.25;;;1.20;;
40515;SDS011;26216;53.724;9.898;2023-04-05T14:41:02;1.70;;;1.02;;
40515;SDS011;26216;53.724;9.898;2023-04-05T14:43:30;2.67;;;1.70;;
40515;SDS011;26216;53.724;9.898;2023-04-05T14:45:56;1.77;;;1.05;;
40515;SDS011;26216;53.724;9.898;2023-04-05T14:48:22;2.03;;;1.30;;
40515;SDS011;26216;53.724;9.898;2023-04-05T14:50:48;2.17;;;1.40;;
40515;SDS011;26216;53.724;9.898;2023-04-05T14:53:14;1.77;;;1.15;;
40515;SDS011;26216;53.724;9.898;2023-04-05T14:55:40;2.03;;;1.40;;
40515;SDS011;26216;53.724;9.898;2023-04-05T14:58:06;2.47;;;1.65;;
40515;SDS011;26216;53.724;9.898;2023-04-05T15:00:33;2.58;;;1.58;;
40515;SDS011;26216;53.724;9.898;2023-04-05T15:02:59;3.03;;;1.90;;
40515;SDS011;26216;53.724;9.898;2023-04-05T15:05:25;5.07;;;2.30;;
40515;SDS011;26216;53.724;9.898;2023-04-05T15:07:51;3.30;;;2.17;;
40515;SDS011;26216;53.724;9.898;2023-04-05T15:10:17;3.88;;;2.05;;
40515;SDS011;26216;53.724;9.898;2023-04-05T15:12:44;3.65;;;2.22;;
40515;SDS011;26216;53.724;9.898;2023-04-05T15:15:10;3.88;;;2.85;;
40515;SDS011;26216;53.724;9.898;2023-04-05T15:17:37;4.15;;;3.15;;
40515;SDS011;26216;53.724;9.898;2023-04-05T15:20:03;3.67;;;2.70;;
40515;SDS011;26216;53.724;9.898;2023-04-05T15:22:29;4.20;;;2.70;;
40515;SDS011;26216;53.724;9.898;2023-04-05T15:24:55;4.50;;;3.38;;
40515;SDS011;26216;53.724;9.898;2023-04-05T15:27:23;4.28;;;3.00;;
40515;SDS011;26216;53.724;9.898;2023-04-05T15:29:49;4.47;;;3.03;;
40515;SDS011;26216;53.724;9.898;2023-04-05T15:32:15;4.10;;;3.03;;